EDLP

Paderborn Lippstadt Airport

Paderborn, Germany
METAR EDLP 211520Z 36006KT 250V060 CAVOK 21/10 Q1020
Observed Flight Rules
Apr-21 @ 15:20 UTC (21 minutes ago) Visual Flight Rules
Wind Visibility Clouds
360° at 6 knots 10,000+ meters
  • Clear skies
Temperatures Readings
Current 21°C / 70°F
Dewpoint 10°C / 50°F
Humidity 50%
Altimeter 30.12" Hg
Pressure 1020 hPa
Elevation 213
METAR EDLP 211520Z 36006KT 250V060 CAVOK 21/10 Q1020
Observed Flight Rules
Apr-21 @ 15:20 UTC
(21 minutes ago)
VFR
Wind Visibility
360° at 6 knots 10,000+ meters
Clouds
  • Clear skies
Temperature Dewpoint
21°C / 70°F 10°C / 50°F
Humidity Altimeter Pressure
50% 30.12" Hg 1020 hPa